sensor_id;sensor_type;location;lat;lon;timestamp;temperature;humidity
42187;DHT22;27858;51.414;0.018;2022-10-16T00:01:24;12.70;7.70
42187;DHT22;27858;51.414;0.018;2022-10-16T00:03:52;12.70;6.90
42187;DHT22;27858;51.414;0.018;2022-10-16T00:06:21;12.70;8.50
42187;DHT22;27858;51.414;0.018;2022-10-16T00:08:48;12.70;10.10
42187;DHT22;27858;51.414;0.018;2022-10-16T00:11:36;12.70;10.90
42187;DHT22;27858;51.414;0.018;2022-10-16T00:14:10;12.70;9.70
42187;DHT22;27858;51.414;0.018;2022-10-16T00:16:37;12.70;9.60
42187;DHT22;27858;51.414;0.018;2022-10-16T00:19:05;12.70;9.50
42187;DHT22;27858;51.414;0.018;2022-10-16T00:21:32;12.70;8.90
42187;DHT22;27858;51.414;0.018;2022-10-16T00:24:05;12.70;7.80
42187;DHT22;27858;51.414;0.018;2022-10-16T00:26:33;12.70;5.80
42187;DHT22;27858;51.414;0.018;2022-10-16T00:29:01;12.80;4.90
42187;DHT22;27858;51.414;0.018;2022-10-16T00:31:29;12.80;3.70
42187;DHT22;27858;51.414;0.018;2022-10-16T00:33:56;12.90;2.60
42187;DHT22;27858;51.414;0.018;2022-10-16T00:36:24;12.90;1.00
42187;DHT22;27858;51.414;0.018;2022-10-16T00:38:53;12.90;2.40
42187;DHT22;27858;51.414;0.018;2022-10-16T00:41:23;12.80;2.70
42187;DHT22;27858;51.414;0.018;2022-10-16T00:43:53;12.80;2.40
42187;DHT22;27858;51.414;0.018;2022-10-16T00:46:28;12.80;1.00
42187;DHT22;27858;51.414;0.018;2022-10-16T00:49:16;12.80;1.00
42187;DHT22;27858;51.414;0.018;2022-10-16T00:51:45;12.70;1.00
42187;DHT22;27858;51.414;0.018;2022-10-16T00:54:16;12.80;1.00
42187;DHT22;27858;51.414;0.018;2022-10-16T00:56:44;12.80;1.00
42187;DHT22;27858;51.414;0.018;2022-10-16T00:59:19;12.80;1.00
42187;DHT22;27858;51.414;0.018;2022-10-16T01:01:47;12.90;1.00
42187;DHT22;27858;51.414;0.018;2022-10-16T01:04:14;12.90;1.00
42187;DHT22;27858;51.414;0.018;2022-10-16T01:07:12;12.80;1.00
42187;DHT22;27858;51.414;0.018;2022-10-16T01:09:57;12.80;4.70
42187;DHT22;27858;51.414;0.018;2022-10-16T01:12:43;12.80;7.10
42187;DHT22;27858;51.414;0.018;2022-10-16T01:20:55;12.80;8.80
42187;DHT22;27858;51.414;0.018;2022-10-16T01:23:56;12.80;9.60
42187;DHT22;27858;51.414;0.018;2022-10-16T01:31:39;12.70;14.80
42187;DHT22;27858;51.414;0.018;2022-10-16T01:34:25;12.70;18.20
42187;DHT22;27858;51.414;0.018;2022-10-16T01:37:08;12.70;21.30
42187;DHT22;27858;51.414;0.018;2022-10-16T01:39:38;12.60;26.00
42187;DHT22;27858;51.414;0.018;2022-10-16T01:42:24;12.70;28.40
42187;DHT22;27858;51.414;0.018;2022-10-16T01:44:54;12.60;33.00
42187;DHT22;27858;51.414;0.018;2022-10-16T01:47:24;12.70;31.30
42187;DHT22;27858;51.414;0.018;2022-10-16T01:49:53;12.70;30.60
42187;DHT22;27858;51.414;0.018;2022-10-16T01:52:23;12.60;34.50
42187;DHT22;27858;51.414;0.018;2022-10-16T01:54:54;12.70;33.40
42187;DHT22;27858;51.414;0.018;2022-10-16T01:57:23;12.70;37.80
42187;DHT22;27858;51.414;0.018;2022-10-16T01:59:54;12.80;39.50
42187;DHT22;27858;51.414;0.018;2022-10-16T02:02:22;12.70;43.30
42187;DHT22;27858;51.414;0.018;2022-10-16T02:04:58;12.70;46.20
42187;DHT22;27858;51.414;0.018;2022-10-16T02:07:27;12.90;55.90
42187;DHT22;27858;51.414;0.018;2022-10-16T02:09:55;12.90;45.50
42187;DHT22;27858;51.414;0.018;2022-10-16T02:12:31;12.90;39.40
42187;DHT22;27858;51.414;0.018;2022-10-16T02:14:59;12.90;32.80
42187;DHT22;27858;51.414;0.018;2022-10-16T02:17:26;13.00;33.90
42187;DHT22;27858;51.414;0.018;2022-10-16T02:19:54;13.00;29.20
42187;DHT22;27858;51.414;0.018;2022-10-16T02:22:28;13.00;21.30
42187;DHT22;27858;51.414;0.018;2022-10-16T02:25:03;13.00;20.80
42187;DHT22;27858;51.414;0.018;2022-10-16T02:30:36;12.80;16.90
42187;DHT22;27858;51.414;0.018;2022-10-16T02:33:08;12.70;19.20
42187;DHT22;27858;51.414;0.018;2022-10-16T02:35:36;12.70;19.70
42187;DHT22;27858;51.414;0.018;2022-10-16T02:38:03;12.70;17.00
42187;DHT22;27858;51.414;0.018;2022-10-16T02:40:31;12.60;9.30
42187;DHT22;27858;51.414;0.018;2022-10-16T02:42:58;12.60;5.60
42187;DHT22;27858;51.414;0.018;2022-10-16T02:45:25;12.60;4.30
42187;DHT22;27858;51.414;0.018;2022-10-16T02:47:52;12.50;1.00
42187;DHT22;27858;51.414;0.018;2022-10-16T02:50:19;12.40;1.00
42187;DHT22;27858;51.414;0.018;2022-10-16T02:52:45;12.40;1.00
42187;DHT22;27858;51.414;0.018;2022-10-16T02:55:12;12.40;1.90
42187;DHT22;27858;51.414;0.018;2022-10-16T02:57:39;12.40;2.20
42187;DHT22;27858;51.414;0.018;2022-10-16T03:00:13;12.40;3.30
42187;DHT22;27858;51.414;0.018;2022-10-16T03:02:40;12.30;3.30
42187;DHT22;27858;51.414;0.018;2022-10-16T03:05:09;12.30;2.60
42187;DHT22;27858;51.414;0.018;2022-10-16T03:07:36;12.20;2.90
42187;DHT22;27858;51.414;0.018;2022-10-16T03:10:03;12.20;2.50
42187;DHT22;27858;51.414;0.018;2022-10-16T03:12:30;12.20;2.50
42187;DHT22;27858;51.414;0.018;2022-10-16T03:14:57;12.10;1.30
42187;DHT22;27858;51.414;0.018;2022-10-16T03:17:24;12.10;1.00
42187;DHT22;27858;51.414;0.018;2022-10-16T03:19:52;12.10;1.00
42187;DHT22;27858;51.414;0.018;2022-10-16T03:22:19;12.10;1.00
42187;DHT22;27858;51.414;0.018;2022-10-16T03:24:46;12.10;1.00
42187;DHT22;27858;51.414;0.018;2022-10-16T03:27:13;12.10;1.00
42187;DHT22;27858;51.414;0.018;2022-10-16T03:29:39;12.00;1.00
42187;DHT22;27858;51.414;0.018;2022-10-16T03:32:06;12.00;1.00
42187;DHT22;27858;51.414;0.018;2022-10-16T03:34:33;12.00;1.00
42187;DHT22;27858;51.414;0.018;2022-10-16T03:37:00;12.00;1.00
42187;DHT22;27858;51.414;0.018;2022-10-16T03:39:27;12.10;1.00
42187;DHT22;27858;51.414;0.018;2022-10-16T03:41:54;12.10;1.00
42187;DHT22;27858;51.414;0.018;2022-10-16T03:44:20;12.00;1.00
42187;DHT22;27858;51.414;0.018;2022-10-16T03:46:48;12.00;1.00
42187;DHT22;27858;51.414;0.018;2022-10-16T03:49:15;12.10;1.00
42187;DHT22;27858;51.414;0.018;2022-10-16T03:51:41;12.00;1.00
42187;DHT22;27858;51.414;0.018;2022-10-16T03:54:10;12.00;1.00
42187;DHT22;27858;51.414;0.018;2022-10-16T03:56:37;12.00;1.00
42187;DHT22;27858;51.414;0.018;2022-10-16T03:59:04;12.10;1.00
42187;DHT22;27858;51.414;0.018;2022-10-16T04:01:30;12.10;1.00
42187;DHT22;27858;51.414;0.018;2022-10-16T04:03:57;12.00;1.00
42187;DHT22;27858;51.414;0.018;2022-10-16T04:06:24;12.10;1.00
42187;DHT22;27858;51.414;0.018;2022-10-16T04:08:51;12.00;1.00
42187;DHT22;27858;51.414;0.018;2022-10-16T04:11:18;12.10;1.00
42187;DHT22;27858;51.414;0.018;2022-10-16T04:13:45;12.10;1.00
42187;DHT22;27858;51.414;0.018;2022-10-16T04:16:11;12.10;1.00
42187;DHT22;27858;51.414;0.018;2022-10-16T04:18:38;12.10;1.00
42187;DHT22;27858;51.414;0.018;2022-10-16T04:21:06;12.10;1.00
42187;DHT22;27858;51.414;0.018;2022-10-16T04:23:33;12.10;1.20
42187;DHT22;27858;51.414;0.018;2022-10-16T04:26:00;12.10;3.50
42187;DHT22;27858;51.414;0.018;2022-10-16T04:28:27;12.10;5.00
42187;DHT22;27858;51.414;0.018;2022-10-16T04:30:55;12.10;5.70
42187;DHT22;27858;51.414;0.018;2022-10-16T04:33:22;12.00;8.20
42187;DHT22;27858;51.414;0.018;2022-10-16T04:35:48;12.10;9.30
42187;DHT22;27858;51.414;0.018;2022-10-16T04:38:22;12.10;7.20
42187;DHT22;27858;51.414;0.018;2022-10-16T04:40:48;12.20;1.00
42187;DHT22;27858;51.414;0.018;2022-10-16T04:43:15;12.10;1.00
42187;DHT22;27858;51.414;0.018;2022-10-16T04:45:42;12.00;1.00
42187;DHT22;27858;51.414;0.018;2022-10-16T04:48:09;12.10;1.00
42187;DHT22;27858;51.414;0.018;2022-10-16T04:50:36;12.00;1.00
42187;DHT22;27858;51.414;0.018;2022-10-16T04:53:03;12.10;1.00
42187;DHT22;27858;51.414;0.018;2022-10-16T04:55:29;12.00;1.00
42187;DHT22;27858;51.414;0.018;2022-10-16T04:57:56;12.00;4.10
42187;DHT22;27858;51.414;0.018;2022-10-16T05:00:23;11.90;6.30
42187;DHT22;27858;51.414;0.018;2022-10-16T05:02:50;11.90;9.40
42187;DHT22;27858;51.414;0.018;2022-10-16T05:05:17;11.90;7.90
42187;DHT22;27858;51.414;0.018;2022-10-16T05:07:47;12.00;2.50
42187;DHT22;27858;51.414;0.018;2022-10-16T05:10:14;12.00;1.00
42187;DHT22;27858;51.414;0.018;2022-10-16T05:12:41;12.00;1.00
42187;DHT22;27858;51.414;0.018;2022-10-16T05:15:08;12.00;1.00
42187;DHT22;27858;51.414;0.018;2022-10-16T05:17:35;12.00;1.00
42187;DHT22;27858;51.414;0.018;2022-10-16T05:20:09;12.00;1.00
42187;DHT22;27858;51.414;0.018;2022-10-16T05:22:36;12.00;1.00
42187;DHT22;27858;51.414;0.018;2022-10-16T05:25:03;11.90;1.00
42187;DHT22;27858;51.414;0.018;2022-10-16T05:27:30;11.90;1.00
42187;DHT22;27858;51.414;0.018;2022-10-16T05:29:57;11.90;1.00
42187;DHT22;27858;51.414;0.018;2022-10-16T05:32:24;11.90;1.00
42187;DHT22;27858;51.414;0.018;2022-10-16T05:34:51;11.90;1.00
42187;DHT22;27858;51.414;0.018;2022-10-16T05:37:18;11.80;1.00
42187;DHT22;27858;51.414;0.018;2022-10-16T05:39:45;11.80;1.00
42187;DHT22;27858;51.414;0.018;2022-10-16T05:42:12;11.80;1.00
42187;DHT22;27858;51.414;0.018;2022-10-16T05:44:39;11.80;1.00
42187;DHT22;27858;51.414;0.018;2022-10-16T05:47:05;11.80;1.00
42187;DHT22;27858;51.414;0.018;2022-10-16T05:49:32;11.70;1.00
42187;DHT22;27858;51.414;0.018;2022-10-16T05:52:06;11.60;1.00
42187;DHT22;27858;51.414;0.018;2022-10-16T05:54:32;11.60;1.00
42187;DHT22;27858;51.414;0.018;2022-10-16T05:56:59;11.60;1.00
42187;DHT22;27858;51.414;0.018;2022-10-16T05:59:26;11.60;1.00
42187;DHT22;27858;51.414;0.018;2022-10-16T06:01:53;11.60;1.00
42187;DHT22;27858;51.414;0.018;2022-10-16T06:04:20;11.60;1.00
42187;DHT22;27858;51.414;0.018;2022-10-16T06:06:46;11.60;1.00
42187;DHT22;27858;51.414;0.018;2022-10-16T06:09:13;11.60;1.00
42187;DHT22;27858;51.414;0.018;2022-10-16T06:11:40;11.50;1.00
42187;DHT22;27858;51.414;0.018;2022-10-16T06:14:08;11.50;1.00
42187;DHT22;27858;51.414;0.018;2022-10-16T06:16:36;11.40;1.00
42187;DHT22;27858;51.414;0.018;2022-10-16T06:19:03;11.40;1.00
42187;DHT22;27858;51.414;0.018;2022-10-16T06:21:33;11.40;1.00
42187;DHT22;27858;51.414;0.018;2022-10-16T06:23:59;11.40;1.00
42187;DHT22;27858;51.414;0.018;2022-10-16T06:26:28;11.40;1.00
42187;DHT22;27858;51.414;0.018;2022-10-16T06:28:56;11.30;1.00
42187;DHT22;27858;51.414;0.018;2022-10-16T06:31:24;11.30;1.00
42187;DHT22;27858;51.414;0.018;2022-10-16T06:33:58;11.30;1.00
42187;DHT22;27858;51.414;0.018;2022-10-16T06:36:25;11.30;1.00
42187;DHT22;27858;51.414;0.018;2022-10-16T06:38:53;11.30;1.00
42187;DHT22;27858;51.414;0.018;2022-10-16T06:41:21;11.40;1.00
42187;DHT22;27858;51.414;0.018;2022-10-16T06:43:48;11.40;1.00
42187;DHT22;27858;51.414;0.018;2022-10-16T06:46:19;11.30;1.00
42187;DHT22;27858;51.414;0.018;2022-10-16T06:48:46;11.40;1.00
42187;DHT22;27858;51.414;0.018;2022-10-16T06:51:15;11.40;1.00
42187;DHT22;27858;51.414;0.018;2022-10-16T06:53:50;11.40;1.00
42187;DHT22;27858;51.414;0.018;2022-10-16T06:56:30;11.40;1.00
42187;DHT22;27858;51.414;0.018;2022-10-16T06:58:58;11.50;1.00
42187;DHT22;27858;51.414;0.018;2022-10-16T07:01:24;11.50;1.00
42187;DHT22;27858;51.414;0.018;2022-10-16T07:03:52;11.50;1.00
42187;DHT22;27858;51.414;0.018;2022-10-16T07:06:22;11.60;1.00
42187;DHT22;27858;51.414;0.018;2022-10-16T07:08:49;11.60;1.00
42187;DHT22;27858;51.414;0.018;2022-10-16T07:11:18;11.60;1.00
42187;DHT22;27858;51.414;0.018;2022-10-16T07:13:46;11.70;1.00
42187;DHT22;27858;51.414;0.018;2022-10-16T07:16:31;11.70;1.00
42187;DHT22;27858;51.414;0.018;2022-10-16T07:19:00;11.70;1.00
42187;DHT22;27858;51.414;0.018;2022-10-16T07:21:29;11.70;1.00
42187;DHT22;27858;51.414;0.018;2022-10-16T07:23:58;11.70;1.00
42187;DHT22;27858;51.414;0.018;2022-10-16T07:26:27;11.80;1.00
42187;DHT22;27858;51.414;0.018;2022-10-16T07:28:54;11.80;1.00
42187;DHT22;27858;51.414;0.018;2022-10-16T07:31:22;11.80;1.00
42187;DHT22;27858;51.414;0.018;2022-10-16T07:33:50;11.80;1.00
42187;DHT22;27858;51.414;0.018;2022-10-16T07:36:18;11.90;1.00
42187;DHT22;27858;51.414;0.018;2022-10-16T07:38:46;11.90;1.00
42187;DHT22;27858;51.414;0.018;2022-10-16T07:41:18;11.90;1.00
42187;DHT22;27858;51.414;0.018;2022-10-16T07:43:49;11.90;1.00
42187;DHT22;27858;51.414;0.018;2022-10-16T07:46:17;11.90;1.00
42187;DHT22;27858;51.414;0.018;2022-10-16T07:48:44;11.90;1.00
42187;DHT22;27858;51.414;0.018;2022-10-16T07:51:24;12.00;1.00
42187;DHT22;27858;51.414;0.018;2022-10-16T07:53:51;12.00;1.00
42187;DHT22;27858;51.414;0.018;2022-10-16T07:56:20;12.00;1.00
42187;DHT22;27858;51.414;0.018;2022-10-16T07:58:47;12.00;1.00
42187;DHT22;27858;51.414;0.018;2022-10-16T08:01:16;12.10;1.00
42187;DHT22;27858;51.414;0.018;2022-10-16T08:03:45;12.00;1.00
42187;DHT22;27858;51.414;0.018;2022-10-16T08:06:13;12.00;1.00
42187;DHT22;27858;51.414;0.018;2022-10-16T08:08:40;12.00;1.00
42187;DHT22;27858;51.414;0.018;2022-10-16T08:11:07;12.00;1.00
42187;DHT22;27858;51.414;0.018;2022-10-16T08:13:34;12.00;1.00
42187;DHT22;27858;51.414;0.018;2022-10-16T08:16:01;12.00;1.00
42187;DHT22;27858;51.414;0.018;2022-10-16T08:18:30;12.00;1.00
42187;DHT22;27858;51.414;0.018;2022-10-16T08:20:59;12.00;1.00
42187;DHT22;27858;51.414;0.018;2022-10-16T08:23:27;12.10;1.00
42187;DHT22;27858;51.414;0.018;2022-10-16T08:25:55;12.10;1.00
42187;DHT22;27858;51.414;0.018;2022-10-16T08:28:23;12.10;1.00
42187;DHT22;27858;51.414;0.018;2022-10-16T08:30:50;12.10;1.00
42187;DHT22;27858;51.414;0.018;2022-10-16T08:33:17;12.10;1.00
42187;DHT22;27858;51.414;0.018;2022-10-16T08:35:53;12.20;1.00
42187;DHT22;27858;51.414;0.018;2022-10-16T08:38:21;12.10;1.00
42187;DHT22;27858;51.414;0.018;2022-10-16T08:40:48;12.20;1.00
42187;DHT22;27858;51.414;0.018;2022-10-16T08:46:15;12.20;1.00
42187;DHT22;27858;51.414;0.018;2022-10-16T08:48:48;12.20;1.00
42187;DHT22;27858;51.414;0.018;2022-10-16T08:53:56;12.30;1.00
42187;DHT22;27858;51.414;0.018;2022-10-16T08:56:25;12.40;1.00
42187;DHT22;27858;51.414;0.018;2022-10-16T08:58:53;12.50;1.00
42187;DHT22;27858;51.414;0.018;2022-10-16T09:01:56;12.60;1.00
42187;DHT22;27858;51.414;0.018;2022-10-16T09:07:08;12.70;1.00
42187;DHT22;27858;51.414;0.018;2022-10-16T09:12:25;12.90;1.00
42187;DHT22;27858;51.414;0.018;2022-10-16T09:15:15;13.00;1.00
42187;DHT22;27858;51.414;0.018;2022-10-16T09:18:04;13.10;1.00
42187;DHT22;27858;51.414;0.018;2022-10-16T09:25:51;13.30;1.00
42187;DHT22;27858;51.414;0.018;2022-10-16T09:28:19;13.40;1.00
42187;DHT22;27858;51.414;0.018;2022-10-16T09:30:49;13.40;1.00
42187;DHT22;27858;51.414;0.018;2022-10-16T09:33:19;13.50;1.00
42187;DHT22;27858;51.414;0.018;2022-10-16T09:35:54;13.50;1.00
42187;DHT22;27858;51.414;0.018;2022-10-16T09:38:33;13.60;1.00
42187;DHT22;27858;51.414;0.018;2022-10-16T09:41:20;13.60;1.00
42187;DHT22;27858;51.414;0.018;2022-10-16T09:44:00;13.70;1.00
42187;DHT22;27858;51.414;0.018;2022-10-16T09:46:33;13.80;1.00
42187;DHT22;27858;51.414;0.018;2022-10-16T09:49:02;13.90;99.90
42187;DHT22;27858;51.414;0.018;2022-10-16T09:51:36;13.90;99.90
42187;DHT22;27858;51.414;0.018;2022-10-16T09:56:37;14.00;99.90
42187;DHT22;27858;51.414;0.018;2022-10-16T09:59:16;14.00;99.90
42187;DHT22;27858;51.414;0.018;2022-10-16T10:01:47;14.10;99.90
42187;DHT22;27858;51.414;0.018;2022-10-16T10:04:14;14.00;99.90
42187;DHT22;27858;51.414;0.018;2022-10-16T10:06:50;14.00;99.90
42187;DHT22;27858;51.414;0.018;2022-10-16T10:09:32;14.10;99.90
42187;DHT22;27858;51.414;0.018;2022-10-16T10:12:02;14.10;99.90
42187;DHT22;27858;51.414;0.018;2022-10-16T10:14:48;14.20;99.90
42187;DHT22;27858;51.414;0.018;2022-10-16T10:17:21;14.30;99.90
42187;DHT22;27858;51.414;0.018;2022-10-16T10:19:57;14.40;99.90
42187;DHT22;27858;51.414;0.018;2022-10-16T10:36:41;14.80;99.90
42187;DHT22;27858;51.414;0.018;2022-10-16T10:39:43;14.90;99.90
42187;DHT22;27858;51.414;0.018;2022-10-16T10:42:28;14.90;99.90
42187;DHT22;27858;51.414;0.018;2022-10-16T10:48:12;15.10;99.90
42187;DHT22;27858;51.414;0.018;2022-10-16T10:51:04;15.30;99.90
42187;DHT22;27858;51.414;0.018;2022-10-16T10:53:56;15.30;99.90
42187;DHT22;27858;51.414;0.018;2022-10-16T10:56:52;15.40;99.90
42187;DHT22;27858;51.414;0.018;2022-10-16T11:02:35;15.50;99.90
42187;DHT22;27858;51.414;0.018;2022-10-16T11:05:42;15.50;99.90
42187;DHT22;27858;51.414;0.018;2022-10-16T11:08:14;15.60;99.90
42187;DHT22;27858;51.414;0.018;2022-10-16T11:10:54;15.70;99.90
42187;DHT22;27858;51.414;0.018;2022-10-16T11:16:32;15.80;99.90
42187;DHT22;27858;51.414;0.018;2022-10-16T11:22:05;16.00;99.90
42187;DHT22;27858;51.414;0.018;2022-10-16T11:27:12;16.20;99.90
42187;DHT22;27858;51.414;0.018;2022-10-16T11:29:50;16.10;99.90
42187;DHT22;27858;51.414;0.018;2022-10-16T11:32:40;16.10;99.90
42187;DHT22;27858;51.414;0.018;2022-10-16T11:35:17;16.20;99.90
42187;DHT22;27858;51.414;0.018;2022-10-16T11:37:47;16.40;99.90
42187;DHT22;27858;51.414;0.018;2022-10-16T11:40:18;16.40;99.90
42187;DHT22;27858;51.414;0.018;2022-10-16T11:42:58;16.40;99.90
42187;DHT22;27858;51.414;0.018;2022-10-16T11:45:36;16.40;99.90
42187;DHT22;27858;51.414;0.018;2022-10-16T11:53:16;16.40;99.90
42187;DHT22;27858;51.414;0.018;2022-10-16T11:55:45;16.60;99.90
42187;DHT22;27858;51.414;0.018;2022-10-16T12:06:21;16.90;99.90
42187;DHT22;27858;51.414;0.018;2022-10-16T12:08:52;17.00;99.90
42187;DHT22;27858;51.414;0.018;2022-10-16T12:17:03;17.00;99.90
42187;DHT22;27858;51.414;0.018;2022-10-16T12:19:32;17.00;99.90
42187;DHT22;27858;51.414;0.018;2022-10-16T12:22:01;17.10;99.90
42187;DHT22;27858;51.414;0.018;2022-10-16T12:24:39;17.10;99.90
42187;DHT22;27858;51.414;0.018;2022-10-16T12:27:30;17.10;99.90
42187;DHT22;27858;51.414;0.018;2022-10-16T12:30:02;17.20;99.90
42187;DHT22;27858;51.414;0.018;2022-10-16T12:32:35;17.20;99.90
42187;DHT22;27858;51.414;0.018;2022-10-16T12:35:30;17.20;99.90
42187;DHT22;27858;51.414;0.018;2022-10-16T12:41:04;17.10;99.90
42187;DHT22;27858;51.414;0.018;2022-10-16T12:46:00;16.90;99.90
42187;DHT22;27858;51.414;0.018;2022-10-16T12:48:27;16.80;99.90
42187;DHT22;27858;51.414;0.018;2022-10-16T13:23:20;16.90;99.90
42187;DHT22;27858;51.414;0.018;2022-10-16T13:28:29;16.90;99.90
42187;DHT22;27858;51.414;0.018;2022-10-16T13:30:59;16.80;99.90
42187;DHT22;27858;51.414;0.018;2022-10-16T13:33:37;16.90;99.90
42187;DHT22;27858;51.414;0.018;2022-10-16T13:36:06;16.90;99.90
42187;DHT22;27858;51.414;0.018;2022-10-16T13:38:35;17.00;99.90
42187;DHT22;27858;51.414;0.018;2022-10-16T13:41:13;16.90;99.90
42187;DHT22;27858;51.414;0.018;2022-10-16T13:43:49;16.90;99.90
42187;DHT22;27858;51.414;0.018;2022-10-16T13:46:22;17.00;99.90
42187;DHT22;27858;51.414;0.018;2022-10-16T13:48:59;17.10;99.90
42187;DHT22;27858;51.414;0.018;2022-10-16T13:51:27;17.10;99.90
42187;DHT22;27858;51.414;0.018;2022-10-16T13:53:55;17.20;99.90
42187;DHT22;27858;51.414;0.018;2022-10-16T13:56:26;17.20;99.90
42187;DHT22;27858;51.414;0.018;2022-10-16T13:59:05;17.20;99.90
42187;DHT22;27858;51.414;0.018;2022-10-16T14:01:41;17.30;99.90
42187;DHT22;27858;51.414;0.018;2022-10-16T14:04:11;17.30;99.90
42187;DHT22;27858;51.414;0.018;2022-10-16T14:06:42;17.30;99.90
42187;DHT22;27858;51.414;0.018;2022-10-16T14:09:23;17.40;99.90
42187;DHT22;27858;51.414;0.018;2022-10-16T14:12:03;17.40;99.90
42187;DHT22;27858;51.414;0.018;2022-10-16T14:14:44;17.40;99.90
42187;DHT22;27858;51.414;0.018;2022-10-16T14:17:17;17.40;99.90
42187;DHT22;27858;51.414;0.018;2022-10-16T14:19:50;17.30;99.90
42187;DHT22;27858;51.414;0.018;2022-10-16T14:22:30;17.20;99.90
42187;DHT22;27858;51.414;0.018;2022-10-16T14:24:57;17.20;99.90
42187;DHT22;27858;51.414;0.018;2022-10-16T14:27:34;17.20;99.90
42187;DHT22;27858;51.414;0.018;2022-10-16T14:30:14;17.20;99.90
42187;DHT22;27858;51.414;0.018;2022-10-16T14:32:57;17.10;99.90
42187;DHT22;27858;51.414;0.018;2022-10-16T14:35:33;17.10;99.90
42187;DHT22;27858;51.414;0.018;2022-10-16T14:38:02;17.10;99.90
42187;DHT22;27858;51.414;0.018;2022-10-16T14:40:34;17.10;99.90
42187;DHT22;27858;51.414;0.018;2022-10-16T14:43:03;17.10;99.90
42187;DHT22;27858;51.414;0.018;2022-10-16T14:45:33;17.00;99.90
42187;DHT22;27858;51.414;0.018;2022-10-16T14:48:05;17.00;99.90
42187;DHT22;27858;51.414;0.018;2022-10-16T14:50:32;17.00;99.90
42187;DHT22;27858;51.414;0.018;2022-10-16T14:52:59;17.00;99.90
42187;DHT22;27858;51.414;0.018;2022-10-16T14:55:26;17.00;99.90
42187;DHT22;27858;51.414;0.018;2022-10-16T14:57:53;16.90;99.90
42187;DHT22;27858;51.414;0.018;2022-10-16T15:00:26;16.90;99.90
42187;DHT22;27858;51.414;0.018;2022-10-16T15:02:53;16.80;99.90
42187;DHT22;27858;51.414;0.018;2022-10-16T15:07:53;16.80;99.90
42187;DHT22;27858;51.414;0.018;2022-10-16T15:10:23;16.80;99.90
42187;DHT22;27858;51.414;0.018;2022-10-16T15:12:50;16.70;99.90
42187;DHT22;27858;51.414;0.018;2022-10-16T15:15:30;16.70;99.90
42187;DHT22;27858;51.414;0.018;2022-10-16T15:17:58;16.60;1.00
42187;DHT22;27858;51.414;0.018;2022-10-16T15:20:29;16.60;1.00
42187;DHT22;27858;51.414;0.018;2022-10-16T15:22:57;16.60;1.00
42187;DHT22;27858;51.414;0.018;2022-10-16T15:25:37;16.60;1.00
42187;DHT22;27858;51.414;0.018;2022-10-16T15:28:06;16.50;1.00
42187;DHT22;27858;51.414;0.018;2022-10-16T15:30:34;16.50;1.00
42187;DHT22;27858;51.414;0.018;2022-10-16T15:33:02;16.40;1.00
42187;DHT22;27858;51.414;0.018;2022-10-16T15:35:29;16.40;1.00
42187;DHT22;27858;51.414;0.018;2022-10-16T15:37:56;16.40;1.00
42187;DHT22;27858;51.414;0.018;2022-10-16T15:40:23;16.40;1.00
42187;DHT22;27858;51.414;0.018;2022-10-16T15:42:50;16.30;1.00
42187;DHT22;27858;51.414;0.018;2022-10-16T15:45:17;16.30;1.00
42187;DHT22;27858;51.414;0.018;2022-10-16T15:47:45;16.20;1.00
42187;DHT22;27858;51.414;0.018;2022-10-16T15:50:14;16.30;1.00
42187;DHT22;27858;51.414;0.018;2022-10-16T15:52:41;16.20;1.00
42187;DHT22;27858;51.414;0.018;2022-10-16T15:55:11;16.20;1.00
42187;DHT22;27858;51.414;0.018;2022-10-16T15:57:38;16.20;1.00
42187;DHT22;27858;51.414;0.018;2022-10-16T16:00:11;16.20;1.00
42187;DHT22;27858;51.414;0.018;2022-10-16T16:02:38;16.10;1.00
42187;DHT22;27858;51.414;0.018;2022-10-16T16:05:06;16.10;1.00
42187;DHT22;27858;51.414;0.018;2022-10-16T16:07:35;16.00;1.00
42187;DHT22;27858;51.414;0.018;2022-10-16T16:10:04;16.10;1.00
42187;DHT22;27858;51.414;0.018;2022-10-16T16:12:32;16.00;1.00
42187;DHT22;27858;51.414;0.018;2022-10-16T16:14:59;15.90;1.00
42187;DHT22;27858;51.414;0.018;2022-10-16T16:17:32;16.00;1.00
42187;DHT22;27858;51.414;0.018;2022-10-16T16:19:59;16.00;1.00
42187;DHT22;27858;51.414;0.018;2022-10-16T16:22:26;15.90;1.00
42187;DHT22;27858;51.414;0.018;2022-10-16T16:24:54;15.90;1.00
42187;DHT22;27858;51.414;0.018;2022-10-16T16:27:21;15.80;1.00
42187;DHT22;27858;51.414;0.018;2022-10-16T16:29:47;15.80;1.00
42187;DHT22;27858;51.414;0.018;2022-10-16T16:32:14;15.80;1.00
42187;DHT22;27858;51.414;0.018;2022-10-16T16:34:41;15.80;1.00
42187;DHT22;27858;51.414;0.018;2022-10-16T16:37:08;15.80;1.00
42187;DHT22;27858;51.414;0.018;2022-10-16T16:39:35;15.70;1.00
42187;DHT22;27858;51.414;0.018;2022-10-16T16:42:02;15.60;1.00
42187;DHT22;27858;51.414;0.018;2022-10-16T16:44:30;15.60;3.80
42187;DHT22;27858;51.414;0.018;2022-10-16T16:46:57;15.60;6.50
42187;DHT22;27858;51.414;0.018;2022-10-16T16:49:24;15.70;8.90
42187;DHT22;27858;51.414;0.018;2022-10-16T16:51:52;15.60;12.60
42187;DHT22;27858;51.414;0.018;2022-10-16T16:54:19;15.50;16.00
42187;DHT22;27858;51.414;0.018;2022-10-16T16:56:46;15.50;19.20
42187;DHT22;27858;51.414;0.018;2022-10-16T16:59:18;15.50;23.90
42187;DHT22;27858;51.414;0.018;2022-10-16T17:01:46;15.40;28.40
42187;DHT22;27858;51.414;0.018;2022-10-16T17:04:16;15.40;31.90
42187;DHT22;27858;51.414;0.018;2022-10-16T17:06:43;15.40;36.50
42187;DHT22;27858;51.414;0.018;2022-10-16T17:09:10;15.40;40.30
42187;DHT22;27858;51.414;0.018;2022-10-16T17:11:39;15.40;40.50
42187;DHT22;27858;51.414;0.018;2022-10-16T17:14:11;15.40;42.80
42187;DHT22;27858;51.414;0.018;2022-10-16T17:16:39;15.30;47.20
42187;DHT22;27858;51.414;0.018;2022-10-16T17:19:09;15.30;50.20
42187;DHT22;27858;51.414;0.018;2022-10-16T17:21:37;15.40;59.10
42187;DHT22;27858;51.414;0.018;2022-10-16T17:24:04;15.30;59.40
42187;DHT22;27858;51.414;0.018;2022-10-16T17:26:32;15.40;82.30
42187;DHT22;27858;51.414;0.018;2022-10-16T17:29:00;15.30;97.80
42187;DHT22;27858;51.414;0.018;2022-10-16T17:31:30;15.20;99.90
42187;DHT22;27858;51.414;0.018;2022-10-16T17:33:59;15.10;99.90
42187;DHT22;27858;51.414;0.018;2022-10-16T17:36:26;15.20;99.90
42187;DHT22;27858;51.414;0.018;2022-10-16T17:39:01;15.10;99.90
42187;DHT22;27858;51.414;0.018;2022-10-16T17:41:31;15.20;99.90
42187;DHT22;27858;51.414;0.018;2022-10-16T17:43:58;15.10;99.90
42187;DHT22;27858;51.414;0.018;2022-10-16T17:46:25;15.00;99.90
42187;DHT22;27858;51.414;0.018;2022-10-16T17:48:53;15.10;99.90
42187;DHT22;27858;51.414;0.018;2022-10-16T17:51:26;15.00;99.90
42187;DHT22;27858;51.414;0.018;2022-10-16T17:53:54;15.00;99.90
42187;DHT22;27858;51.414;0.018;2022-10-16T17:56:22;15.00;99.90
42187;DHT22;27858;51.414;0.018;2022-10-16T17:58:50;15.10;99.90
42187;DHT22;27858;51.414;0.018;2022-10-16T18:01:23;15.00;99.90
42187;DHT22;27858;51.414;0.018;2022-10-16T18:03:52;15.10;99.90
42187;DHT22;27858;51.414;0.018;2022-10-16T18:06:21;14.90;99.90